sensor_id;sensor_type;location;lat;lon;timestamp;P1;durP1;ratioP1;P2;durP2;ratioP2
50651;SDS011;61429;52.086;5.240;2022-09-04T00:00:50;8.0;;;6.8;;
50651;SDS011;61429;52.086;5.240;2022-09-04T00:02:46;8.5;;;7.3;;
50651;SDS011;61429;52.086;5.240;2022-09-04T00:06:20;7.8;;;7.0;;
50651;SDS011;61429;52.086;5.240;2022-09-04T00:08:10;7.3;;;6.5;;
50651;SDS011;61429;52.086;5.240;2022-09-04T00:10:05;8.71;;;6.1;;
50651;SDS011;61429;52.086;5.240;2022-09-04T00:11:51;7.4;;;6.5;;
50651;SDS011;61429;52.086;5.240;2022-09-04T00:13:38;7.6;;;6.6;;
50651;SDS011;61429;52.086;5.240;2022-09-04T00:15:22;7.0;;;6.3;;
50651;SDS011;61429;52.086;5.240;2022-09-04T00:18:48;7.3;;;6.5;;
50651;SDS011;61429;52.086;5.240;2022-09-04T00:20:35;8.6;;;6.4;;
50651;SDS011;61429;52.086;5.240;2022-09-04T00:22:19;7.5;;;6.6;;
50651;SDS011;61429;52.086;5.240;2022-09-04T00:24:06;7.5;;;6.8;;
50651;SDS011;61429;52.086;5.240;2022-09-04T00:25:48;7.8;;;6.7;;
50651;SDS011;61429;52.086;5.240;2022-09-04T00:29:17;7.0;;;6.3;;
50651;SDS011;61429;52.086;5.240;2022-09-04T00:31:08;7.7;;;6.7;;
50651;SDS011;61429;52.086;5.240;2022-09-04T00:32:58;8.6;;;6.7;;
50651;SDS011;61429;52.086;5.240;2022-09-04T00:34:46;7.6;;;6.9;;
50651;SDS011;61429;52.086;5.240;2022-09-04T00:36:33;8.1;;;6.8;;
50651;SDS011;61429;52.086;5.240;2022-09-04T00:38:14;6.6;;;6.0;;
50651;SDS011;61429;52.086;5.240;2022-09-04T00:41:42;9.9;;;7.7;;
50651;SDS011;61429;52.086;5.240;2022-09-04T00:43:54;7.9;;;7.2;;
50651;SDS011;61429;52.086;5.240;2022-09-04T00:46:53;7.5;;;6.7;;
50651;SDS011;61429;52.086;5.240;2022-09-04T00:50:00;7.6;;;6.5;;
50651;SDS011;61429;52.086;5.240;2022-09-04T00:52:00;7.3;;;6.7;;
50651;SDS011;61429;52.086;5.240;2022-09-04T00:53:50;7.9;;;7.1;;
50651;SDS011;61429;52.086;5.240;2022-09-04T00:56:21;8.2;;;6.7;;
50651;SDS011;61429;52.086;5.240;2022-09-04T00:59:59;8.1;;;7.3;;
50651;SDS011;61429;52.086;5.240;2022-09-04T01:01:43;7.2;;;6.6;;
50651;SDS011;61429;52.086;5.240;2022-09-04T01:03:22;7.5;;;6.8;;
50651;SDS011;61429;52.086;5.240;2022-09-04T01:05:28;7.6;;;6.7;;
50651;SDS011;61429;52.086;5.240;2022-09-04T01:09:22;8.1;;;7.3;;
50651;SDS011;61429;52.086;5.240;2022-09-04T01:11:42;8.1;;;7.3;;
50651;SDS011;61429;52.086;5.240;2022-09-04T01:15:17;8.71;;;7.9;;
50651;SDS011;61429;52.086;5.240;2022-09-04T01:17:02;8.4;;;7.5;;
50651;SDS011;61429;52.086;5.240;2022-09-04T01:18:49;8.6;;;7.4;;
50651;SDS011;61429;52.086;5.240;2022-09-04T01:20:37;8.31;;;7.4;;
50651;SDS011;61429;52.086;5.240;2022-09-04T01:22:47;7.7;;;6.9;;
50651;SDS011;61429;52.086;5.240;2022-09-04T01:24:38;8.71;;;7.8;;
50651;SDS011;61429;52.086;5.240;2022-09-04T01:26:41;7.6;;;6.9;;
50651;SDS011;61429;52.086;5.240;2022-09-04T01:28:24;8.5;;;7.7;;
50651;SDS011;61429;52.086;5.240;2022-09-04T01:31:48;8.6;;;7.7;;
50651;SDS011;61429;52.086;5.240;2022-09-04T01:33:43;8.0;;;7.2;;
50651;SDS011;61429;52.086;5.240;2022-09-04T01:35:29;8.9;;;8.0;;
50651;SDS011;61429;52.086;5.240;2022-09-04T01:37:28;10.5;;;9.4;;
50651;SDS011;61429;52.086;5.240;2022-09-04T01:39:16;9.4;;;8.4;;
50651;SDS011;61429;52.086;5.240;2022-09-04T01:41:00;9.0;;;8.1;;
50651;SDS011;61429;52.086;5.240;2022-09-04T01:44:25;9.4;;;8.6;;
50651;SDS011;61429;52.086;5.240;2022-09-04T01:46:09;9.81;;;8.9;;
50651;SDS011;61429;52.086;5.240;2022-09-04T01:48:09;9.1;;;8.31;;
50651;SDS011;61429;52.086;5.240;2022-09-04T01:49:53;10.5;;;8.5;;
50651;SDS011;61429;52.086;5.240;2022-09-04T01:51:39;9.9;;;9.0;;
50651;SDS011;61429;52.086;5.240;2022-09-04T01:55:06;10.5;;;9.5;;
50651;SDS011;61429;52.086;5.240;2022-09-04T01:56:52;9.81;;;8.81;;
50651;SDS011;61429;52.086;5.240;2022-09-04T01:58:42;9.71;;;8.9;;
50651;SDS011;61429;52.086;5.240;2022-09-04T02:00:27;9.6;;;8.71;;
50651;SDS011;61429;52.086;5.240;2022-09-04T02:02:10;10.21;;;9.1;;
50651;SDS011;61429;52.086;5.240;2022-09-04T02:03:56;8.81;;;7.7;;
50651;SDS011;61429;52.086;5.240;2022-09-04T02:07:37;9.21;;;8.31;;
50651;SDS011;61429;52.086;5.240;2022-09-04T02:09:25;9.31;;;8.4;;
50651;SDS011;61429;52.086;5.240;2022-09-04T02:11:12;8.81;;;8.1;;
50651;SDS011;61429;52.086;5.240;2022-09-04T02:12:54;9.71;;;8.71;;
50651;SDS011;61429;52.086;5.240;2022-09-04T02:14:46;10.4;;;8.71;;
50651;SDS011;61429;52.086;5.240;2022-09-04T02:16:35;8.9;;;8.1;;
50651;SDS011;61429;52.086;5.240;2022-09-04T02:20:16;9.0;;;8.2;;
50651;SDS011;61429;52.086;5.240;2022-09-04T02:22:02;9.5;;;8.6;;
50651;SDS011;61429;52.086;5.240;2022-09-04T02:23:53;10.9;;;9.81;;
50651;SDS011;61429;52.086;5.240;2022-09-04T02:25:40;9.9;;;8.9;;
50651;SDS011;61429;52.086;5.240;2022-09-04T02:27:25;9.71;;;8.71;;
50651;SDS011;61429;52.086;5.240;2022-09-04T02:29:18;9.31;;;8.4;;
50651;SDS011;61429;52.086;5.240;2022-09-04T02:31:08;10.0;;;9.1;;
50651;SDS011;61429;52.086;5.240;2022-09-04T02:34:41;10.5;;;9.4;;
50651;SDS011;61429;52.086;5.240;2022-09-04T02:36:27;10.5;;;9.31;;
50651;SDS011;61429;52.086;5.240;2022-09-04T02:38:12;10.1;;;9.1;;
50651;SDS011;61429;52.086;5.240;2022-09-04T02:40:01;9.4;;;8.4;;
50651;SDS011;61429;52.086;5.240;2022-09-04T02:41:55;9.0;;;8.2;;
50651;SDS011;61429;52.086;5.240;2022-09-04T02:43:43;9.5;;;8.71;;
50651;SDS011;61429;52.086;5.240;2022-09-04T02:47:22;10.1;;;9.1;;
50651;SDS011;61429;52.086;5.240;2022-09-04T02:49:08;8.31;;;7.6;;
50651;SDS011;61429;52.086;5.240;2022-09-04T02:50:56;8.6;;;7.8;;
50651;SDS011;61429;52.086;5.240;2022-09-04T02:53:06;9.0;;;8.1;;
50651;SDS011;61429;52.086;5.240;2022-09-04T02:55:06;8.6;;;7.8;;
50651;SDS011;61429;52.086;5.240;2022-09-04T02:57:00;9.0;;;8.1;;
50651;SDS011;61429;52.086;5.240;2022-09-04T02:58:51;8.81;;;8.0;;
50651;SDS011;61429;52.086;5.240;2022-09-04T03:00:45;9.5;;;8.4;;
50651;SDS011;61429;52.086;5.240;2022-09-04T03:02:33;9.6;;;8.71;;
50651;SDS011;61429;52.086;5.240;2022-09-04T03:06:01;9.71;;;8.71;;
50651;SDS011;61429;52.086;5.240;2022-09-04T03:07:46;9.4;;;8.6;;
50651;SDS011;61429;52.086;5.240;2022-09-04T03:09:35;10.21;;;9.21;;
50651;SDS011;61429;52.086;5.240;2022-09-04T03:11:22;9.6;;;8.71;;
50651;SDS011;61429;52.086;5.240;2022-09-04T03:13:07;8.2;;;7.5;;
50651;SDS011;61429;52.086;5.240;2022-09-04T03:16:39;9.4;;;8.5;;
50651;SDS011;61429;52.086;5.240;2022-09-04T03:18:22;9.1;;;8.2;;
50651;SDS011;61429;52.086;5.240;2022-09-04T03:20:06;9.9;;;9.0;;
50651;SDS011;61429;52.086;5.240;2022-09-04T03:21:51;9.6;;;8.71;;
50651;SDS011;61429;52.086;5.240;2022-09-04T03:23:34;9.81;;;8.9;;
50651;SDS011;61429;52.086;5.240;2022-09-04T03:28:02;9.9;;;9.0;;
50651;SDS011;61429;52.086;5.240;2022-09-04T03:29:40;11.4;;;9.4;;
50651;SDS011;61429;52.086;5.240;2022-09-04T03:33:11;9.81;;;8.9;;
50651;SDS011;61429;52.086;5.240;2022-09-04T03:34:58;9.21;;;8.31;;
50651;SDS011;61429;52.086;5.240;2022-09-04T03:36:46;10.5;;;9.6;;
50651;SDS011;61429;52.086;5.240;2022-09-04T03:38:39;10.21;;;9.21;;
50651;SDS011;61429;52.086;5.240;2022-09-04T03:40:32;9.71;;;8.9;;
50651;SDS011;61429;52.086;5.240;2022-09-04T03:42:16;9.0;;;8.2;;
50651;SDS011;61429;52.086;5.240;2022-09-04T03:46:02;9.71;;;8.9;;
50651;SDS011;61429;52.086;5.240;2022-09-04T03:47:59;10.1;;;9.21;;
50651;SDS011;61429;52.086;5.240;2022-09-04T03:49:51;9.4;;;8.6;;
50651;SDS011;61429;52.086;5.240;2022-09-04T03:51:40;10.0;;;9.1;;
50651;SDS011;61429;52.086;5.240;2022-09-04T03:53:29;10.5;;;9.6;;
50651;SDS011;61429;52.086;5.240;2022-09-04T03:55:20;8.9;;;8.1;;
50651;SDS011;61429;52.086;5.240;2022-09-04T03:58:51;8.9;;;8.1;;
50651;SDS011;61429;52.086;5.240;2022-09-04T04:00:40;10.5;;;9.6;;
50651;SDS011;61429;52.086;5.240;2022-09-04T04:02:29;10.1;;;9.31;;
50651;SDS011;61429;52.086;5.240;2022-09-04T04:04:56;9.4;;;8.5;;
50651;SDS011;61429;52.086;5.240;2022-09-04T04:08:04;9.71;;;8.71;;
50651;SDS011;61429;52.086;5.240;2022-09-04T04:11:43;10.5;;;9.6;;
50651;SDS011;61429;52.086;5.240;2022-09-04T04:15:31;10.9;;;9.9;;
50651;SDS011;61429;52.086;5.240;2022-09-04T04:17:24;11.1;;;10.1;;
50651;SDS011;61429;52.086;5.240;2022-09-04T04:19:21;10.6;;;9.71;;
50651;SDS011;61429;52.086;5.240;2022-09-04T04:21:12;10.6;;;9.6;;
50651;SDS011;61429;52.086;5.240;2022-09-04T04:23:08;10.7;;;9.71;;
50651;SDS011;61429;52.086;5.240;2022-09-04T04:25:09;11.3;;;10.3;;
50651;SDS011;61429;52.086;5.240;2022-09-04T04:27:02;11.7;;;10.6;;
50651;SDS011;61429;52.086;5.240;2022-09-04T04:29:11;11.4;;;10.4;;
50651;SDS011;61429;52.086;5.240;2022-09-04T04:31:02;11.4;;;10.4;;
50651;SDS011;61429;52.086;5.240;2022-09-04T04:32:54;11.1;;;10.21;;
50651;SDS011;61429;52.086;5.240;2022-09-04T04:35:17;10.8;;;9.81;;
50651;SDS011;61429;52.086;5.240;2022-09-04T04:37:05;11.0;;;10.0;;
50651;SDS011;61429;52.086;5.240;2022-09-04T04:38:55;11.7;;;10.7;;
50651;SDS011;61429;52.086;5.240;2022-09-04T04:40:55;11.9;;;10.9;;
50651;SDS011;61429;52.086;5.240;2022-09-04T04:42:56;11.7;;;10.7;;
50651;SDS011;61429;52.086;5.240;2022-09-04T04:48:19;12.3;;;11.1;;
50651;SDS011;61429;52.086;5.240;2022-09-04T04:51:41;12.1;;;11.0;;
50651;SDS011;61429;52.086;5.240;2022-09-04T04:53:41;12.2;;;11.1;;
50651;SDS011;61429;52.086;5.240;2022-09-04T04:55:31;13.5;;;12.3;;
50651;SDS011;61429;52.086;5.240;2022-09-04T04:59:07;13.7;;;12.5;;
50651;SDS011;61429;52.086;5.240;2022-09-04T05:00:56;13.9;;;12.7;;
50651;SDS011;61429;52.086;5.240;2022-09-04T05:02:45;14.2;;;13.0;;
50651;SDS011;61429;52.086;5.240;2022-09-04T05:04:37;13.7;;;12.3;;
50651;SDS011;61429;52.086;5.240;2022-09-04T05:06:23;14.3;;;13.0;;
50651;SDS011;61429;52.086;5.240;2022-09-04T05:08:09;15.3;;;14.0;;
50651;SDS011;61429;52.086;5.240;2022-09-04T05:11:49;15.1;;;13.7;;
50651;SDS011;61429;52.086;5.240;2022-09-04T05:13:34;14.1;;;12.8;;
50651;SDS011;61429;52.086;5.240;2022-09-04T05:15:22;14.6;;;13.3;;
50651;SDS011;61429;52.086;5.240;2022-09-04T05:17:12;13.4;;;12.1;;
50651;SDS011;61429;52.086;5.240;2022-09-04T05:18:58;14.1;;;12.9;;
50651;SDS011;61429;52.086;5.240;2022-09-04T05:20:44;14.4;;;13.1;;
50651;SDS011;61429;52.086;5.240;2022-09-04T05:24:13;14.5;;;13.2;;
50651;SDS011;61429;52.086;5.240;2022-09-04T05:25:59;13.8;;;12.5;;
50651;SDS011;61429;52.086;5.240;2022-09-04T05:27:49;14.9;;;13.4;;
50651;SDS011;61429;52.086;5.240;2022-09-04T05:29:39;14.4;;;13.2;;
50651;SDS011;61429;52.086;5.240;2022-09-04T05:31:28;15.8;;;14.3;;
50651;SDS011;61429;52.086;5.240;2022-09-04T05:33:16;15.6;;;14.2;;
50651;SDS011;61429;52.086;5.240;2022-09-04T05:36:53;14.7;;;13.4;;
50651;SDS011;61429;52.086;5.240;2022-09-04T05:38:43;14.9;;;13.5;;
50651;SDS011;61429;52.086;5.240;2022-09-04T05:40:45;14.2;;;12.9;;
50651;SDS011;61429;52.086;5.240;2022-09-04T05:42:41;16.11;;;14.6;;
50651;SDS011;61429;52.086;5.240;2022-09-04T05:44:37;15.5;;;14.1;;
50651;SDS011;61429;52.086;5.240;2022-09-04T05:46:27;15.5;;;14.1;;
50651;SDS011;61429;52.086;5.240;2022-09-04T05:48:21;16.3;;;14.7;;
50651;SDS011;61429;52.086;5.240;2022-09-04T05:50:07;15.1;;;13.6;;
50651;SDS011;61429;52.086;5.240;2022-09-04T05:53:15;16.0;;;14.6;;
50651;SDS011;61429;52.086;5.240;2022-09-04T05:55:45;16.9;;;15.4;;
50651;SDS011;61429;52.086;5.240;2022-09-04T05:58:48;14.5;;;13.3;;
50651;SDS011;61429;52.086;5.240;2022-09-04T06:00:49;15.0;;;13.5;;
50651;SDS011;61429;52.086;5.240;2022-09-04T06:04:34;14.6;;;13.3;;
50651;SDS011;61429;52.086;5.240;2022-09-04T06:06:29;14.5;;;13.3;;
50651;SDS011;61429;52.086;5.240;2022-09-04T06:08:18;13.2;;;12.1;;
50651;SDS011;61429;52.086;5.240;2022-09-04T06:10:08;15.0;;;13.7;;
50651;SDS011;61429;52.086;5.240;2022-09-04T06:11:57;15.7;;;14.2;;
50651;SDS011;61429;52.086;5.240;2022-09-04T06:15:39;16.0;;;14.5;;
50651;SDS011;61429;52.086;5.240;2022-09-04T06:17:30;15.5;;;14.2;;
50651;SDS011;61429;52.086;5.240;2022-09-04T06:19:26;15.3;;;14.0;;
50651;SDS011;61429;52.086;5.240;2022-09-04T06:21:35;15.6;;;14.1;;
50651;SDS011;61429;52.086;5.240;2022-09-04T06:25:06;15.4;;;14.0;;
50651;SDS011;61429;52.086;5.240;2022-09-04T06:28:40;15.9;;;14.5;;
50651;SDS011;61429;52.086;5.240;2022-09-04T06:31:57;16.61;;;15.0;;
50651;SDS011;61429;52.086;5.240;2022-09-04T06:34:12;17.11;;;15.4;;
50651;SDS011;61429;52.086;5.240;2022-09-04T06:36:04;13.4;;;12.3;;
50651;SDS011;61429;52.086;5.240;2022-09-04T06:38:51;15.5;;;14.1;;
50651;SDS011;61429;52.086;5.240;2022-09-04T06:40:46;16.2;;;14.8;;
50651;SDS011;61429;52.086;5.240;2022-09-04T06:42:38;15.9;;;14.5;;
50651;SDS011;61429;52.086;5.240;2022-09-04T06:44:28;15.0;;;13.7;;
50651;SDS011;61429;52.086;5.240;2022-09-04T06:46:22;16.5;;;15.0;;
50651;SDS011;61429;52.086;5.240;2022-09-04T06:49:56;15.3;;;13.9;;
50651;SDS011;61429;52.086;5.240;2022-09-04T06:51:51;18.5;;;16.8;;
50651;SDS011;61429;52.086;5.240;2022-09-04T06:53:46;17.7;;;15.9;;
50651;SDS011;61429;52.086;5.240;2022-09-04T06:55:37;16.3;;;14.7;;
50651;SDS011;61429;52.086;5.240;2022-09-04T06:57:27;21.1;;;19.11;;
50651;SDS011;61429;52.086;5.240;2022-09-04T06:59:25;19.2;;;16.3;;
50651;SDS011;61429;52.086;5.240;2022-09-04T07:01:40;16.0;;;14.4;;
50651;SDS011;61429;52.086;5.240;2022-09-04T07:03:33;21.3;;;19.3;;
50651;SDS011;61429;52.086;5.240;2022-09-04T07:05:26;21.3;;;19.3;;
50651;SDS011;61429;52.086;5.240;2022-09-04T07:08:58;20.8;;;19.0;;
50651;SDS011;61429;52.086;5.240;2022-09-04T07:10:46;20.3;;;18.41;;
50651;SDS011;61429;52.086;5.240;2022-09-04T07:12:42;17.61;;;16.0;;
50651;SDS011;61429;52.086;5.240;2022-09-04T07:15:21;19.11;;;17.41;;
50651;SDS011;61429;52.086;5.240;2022-09-04T07:16:18;19.0;;;17.2;;
50651;SDS011;61429;52.086;5.240;2022-09-04T07:18:11;18.8;;;17.11;;
50651;SDS011;61429;52.086;5.240;2022-09-04T07:20:08;18.2;;;16.61;;
50651;SDS011;61429;52.086;5.240;2022-09-04T07:21:57;19.3;;;17.5;;
50651;SDS011;61429;52.086;5.240;2022-09-04T07:25:36;19.8;;;17.91;;
50651;SDS011;61429;52.086;5.240;2022-09-04T07:27:25;19.7;;;18.0;;
50651;SDS011;61429;52.086;5.240;2022-09-04T07:29:19;15.4;;;13.8;;
50651;SDS011;61429;52.086;5.240;2022-09-04T07:31:10;15.4;;;13.7;;
50651;SDS011;61429;52.086;5.240;2022-09-04T07:32:53;15.7;;;14.3;;
50651;SDS011;61429;52.086;5.240;2022-09-04T07:34:39;18.11;;;16.61;;
50651;SDS011;61429;52.086;5.240;2022-09-04T07:38:14;15.0;;;13.5;;
50651;SDS011;61429;52.086;5.240;2022-09-04T07:40:05;15.9;;;14.6;;
50651;SDS011;61429;52.086;5.240;2022-09-04T07:41:48;16.61;;;15.1;;
50651;SDS011;61429;52.086;5.240;2022-09-04T07:43:34;19.0;;;17.2;;
50651;SDS011;61429;52.086;5.240;2022-09-04T07:45:25;16.7;;;15.2;;
50651;SDS011;61429;52.086;5.240;2022-09-04T07:47:13;17.0;;;15.4;;
50651;SDS011;61429;52.086;5.240;2022-09-04T07:50:44;15.5;;;14.1;;
50651;SDS011;61429;52.086;5.240;2022-09-04T07:52:35;14.5;;;13.2;;
50651;SDS011;61429;52.086;5.240;2022-09-04T07:55:22;16.4;;;14.9;;
50651;SDS011;61429;52.086;5.240;2022-09-04T07:59:27;16.8;;;15.2;;
50651;SDS011;61429;52.086;5.240;2022-09-04T08:01:41;16.8;;;15.2;;
50651;SDS011;61429;52.086;5.240;2022-09-04T08:05:30;20.6;;;18.8;;
50651;SDS011;61429;52.086;5.240;2022-09-04T08:07:14;18.0;;;16.4;;
50651;SDS011;61429;52.086;5.240;2022-09-04T08:09:04;17.61;;;16.11;;
50651;SDS011;61429;52.086;5.240;2022-09-04T08:12:41;18.2;;;16.5;;
50651;SDS011;61429;52.086;5.240;2022-09-04T08:15:00;15.4;;;13.9;;
50651;SDS011;61429;52.086;5.240;2022-09-04T08:16:51;14.8;;;13.4;;
50651;SDS011;61429;52.086;5.240;2022-09-04T08:18:47;17.2;;;15.6;;
50651;SDS011;61429;52.086;5.240;2022-09-04T08:20:52;14.6;;;13.1;;
50651;SDS011;61429;52.086;5.240;2022-09-04T08:22:41;16.2;;;14.8;;
50651;SDS011;61429;52.086;5.240;2022-09-04T08:24:48;13.9;;;12.6;;
50651;SDS011;61429;52.086;5.240;2022-09-04T08:26:54;19.3;;;17.61;;
50651;SDS011;61429;52.086;5.240;2022-09-04T08:30:39;19.2;;;17.41;;
50651;SDS011;61429;52.086;5.240;2022-09-04T08:32:29;19.3;;;17.5;;
50651;SDS011;61429;52.086;5.240;2022-09-04T08:35:04;19.11;;;17.41;;
50651;SDS011;61429;52.086;5.240;2022-09-04T08:37:28;20.11;;;18.3;;
50651;SDS011;61429;52.086;5.240;2022-09-04T08:39:18;20.3;;;18.41;;
50651;SDS011;61429;52.086;5.240;2022-09-04T08:45:15;21.0;;;19.11;;
50651;SDS011;61429;52.086;5.240;2022-09-04T08:48:18;20.41;;;18.5;;
50651;SDS011;61429;52.086;5.240;2022-09-04T08:55:34;22.2;;;20.0;;
50651;SDS011;61429;52.086;5.240;2022-09-04T08:58:12;21.9;;;19.91;;
50651;SDS011;61429;52.086;5.240;2022-09-04T09:01:39;20.2;;;18.3;;
50651;SDS011;61429;52.086;5.240;2022-09-04T09:04:07;20.8;;;18.91;;
50651;SDS011;61429;52.086;5.240;2022-09-04T09:06:35;20.3;;;18.5;;
50651;SDS011;61429;52.086;5.240;2022-09-04T09:11:01;20.3;;;18.3;;
50651;SDS011;61429;52.086;5.240;2022-09-04T09:13:07;20.9;;;19.0;;
50651;SDS011;61429;52.086;5.240;2022-09-04T09:16:35;20.11;;;18.11;;
50651;SDS011;61429;52.086;5.240;2022-09-04T09:18:34;20.11;;;18.11;;
50651;SDS011;61429;52.086;5.240;2022-09-04T09:20:19;20.6;;;18.8;;
50651;SDS011;61429;52.086;5.240;2022-09-04T09:22:06;20.8;;;18.7;;
50651;SDS011;61429;52.086;5.240;2022-09-04T09:23:54;19.3;;;17.61;;
50651;SDS011;61429;52.086;5.240;2022-09-04T09:27:15;19.7;;;17.8;;
50651;SDS011;61429;52.086;5.240;2022-09-04T09:29:23;18.8;;;17.2;;
50651;SDS011;61429;52.086;5.240;2022-09-04T09:35:11;19.2;;;17.3;;
50651;SDS011;61429;52.086;5.240;2022-09-04T09:38:36;17.8;;;16.2;;
50651;SDS011;61429;52.086;5.240;2022-09-04T09:42:13;15.9;;;14.4;;
50651;SDS011;61429;52.086;5.240;2022-09-04T09:46:06;16.61;;;15.1;;
50651;SDS011;61429;52.086;5.240;2022-09-04T09:48:20;16.11;;;14.6;;
50651;SDS011;61429;52.086;5.240;2022-09-04T09:52:19;15.4;;;14.0;;
50651;SDS011;61429;52.086;5.240;2022-09-04T09:54:57;16.4;;;14.9;;
50651;SDS011;61429;52.086;5.240;2022-09-04T09:58:34;16.61;;;15.0;;
50651;SDS011;61429;52.086;5.240;2022-09-04T10:01:07;16.2;;;14.7;;
50651;SDS011;61429;52.086;5.240;2022-09-04T10:03:13;13.5;;;12.3;;
50651;SDS011;61429;52.086;5.240;2022-09-04T10:06:34;15.2;;;13.7;;
50651;SDS011;61429;52.086;5.240;2022-09-04T10:09:36;14.4;;;13.0;;
50651;SDS011;61429;52.086;5.240;2022-09-04T10:11:46;13.3;;;12.0;;
50651;SDS011;61429;52.086;5.240;2022-09-04T10:15:00;14.9;;;13.5;;
50651;SDS011;61429;52.086;5.240;2022-09-04T10:18:53;12.1;;;10.9;;
50651;SDS011;61429;52.086;5.240;2022-09-04T10:22:17;14.2;;;12.8;;
50651;SDS011;61429;52.086;5.240;2022-09-04T10:24:53;13.6;;;12.3;;
50651;SDS011;61429;52.086;5.240;2022-09-04T10:28:44;11.6;;;10.5;;
50651;SDS011;61429;52.086;5.240;2022-09-04T10:31:22;12.4;;;11.2;;
50651;SDS011;61429;52.086;5.240;2022-09-04T10:34:27;8.6;;;7.8;;
50651;SDS011;61429;52.086;5.240;2022-09-04T10:38:16;8.71;;;7.8;;
50651;SDS011;61429;52.086;5.240;2022-09-04T10:40:42;9.21;;;8.0;;
50651;SDS011;61429;52.086;5.240;2022-09-04T10:44:38;9.31;;;8.4;;
50651;SDS011;61429;52.086;5.240;2022-09-04T10:46:44;9.71;;;8.81;;
50651;SDS011;61429;52.086;5.240;2022-09-04T10:48:38;8.81;;;7.6;;
50651;SDS011;61429;52.086;5.240;2022-09-04T10:50:52;7.8;;;6.4;;
50651;SDS011;61429;52.086;5.240;2022-09-04T10:53:09;8.0;;;7.2;;
50651;SDS011;61429;52.086;5.240;2022-09-04T10:55:09;7.3;;;6.6;;
50651;SDS011;61429;52.086;5.240;2022-09-04T10:58:05;7.9;;;7.1;;
50651;SDS011;61429;52.086;5.240;2022-09-04T11:00:00;8.5;;;6.8;;
50651;SDS011;61429;52.086;5.240;2022-09-04T11:01:50;7.9;;;7.1;;
50651;SDS011;61429;52.086;5.240;2022-09-04T11:08:11;8.31;;;7.5;;
50651;SDS011;61429;52.086;5.240;2022-09-04T11:11:43;6.9;;;6.3;;
50651;SDS011;61429;52.086;5.240;2022-09-04T11:13:48;7.3;;;6.5;;
50651;SDS011;61429;52.086;5.240;2022-09-04T11:17:46;6.8;;;6.2;;
50651;SDS011;61429;52.086;5.240;2022-09-04T11:22:21;5.5;;;5.0;;
50651;SDS011;61429;52.086;5.240;2022-09-04T11:26:54;6.0;;;5.4;;
50651;SDS011;61429;52.086;5.240;2022-09-04T11:30:26;6.0;;;5.4;;
50651;SDS011;61429;52.086;5.240;2022-09-04T11:32:22;6.1;;;5.2;;
50651;SDS011;61429;52.086;5.240;2022-09-04T11:36:03;5.11;;;4.61;;
50651;SDS011;61429;52.086;5.240;2022-09-04T11:39:37;6.3;;;4.91;;
50651;SDS011;61429;52.086;5.240;2022-09-04T11:43:10;5.7;;;5.11;;
50651;SDS011;61429;52.086;5.240;2022-09-04T11:45:26;4.61;;;4.1;;
50651;SDS011;61429;52.086;5.240;2022-09-04T11:48:51;5.11;;;4.41;;
50651;SDS011;61429;52.086;5.240;2022-09-04T11:49:51;5.11;;;4.41;;
50651;SDS011;61429;52.086;5.240;2022-09-04T11:50:25;5.0;;;3.5;;
50651;SDS011;61429;52.086;5.240;2022-09-04T11:52:23;4.2;;;3.5;;
50651;SDS011;61429;52.086;5.240;2022-09-04T11:54:14;4.8;;;3.3;;
50651;SDS011;61429;52.086;5.240;2022-09-04T11:56:59;4.61;;;3.8;;
50651;SDS011;61429;52.086;5.240;2022-09-04T11:58:57;4.91;;;3.6;;
50651;SDS011;61429;52.086;5.240;2022-09-04T12:00:58;4.5;;;3.8;;
50651;SDS011;61429;52.086;5.240;2022-09-04T12:02:59;5.4;;;3.9;;
50651;SDS011;61429;52.086;5.240;2022-09-04T12:06:38;4.91;;;4.2;;
50651;SDS011;61429;52.086;5.240;2022-09-04T12:08:33;5.3;;;4.1;;
50651;SDS011;61429;52.086;5.240;2022-09-04T12:11:09;4.1;;;3.3;;
50651;SDS011;61429;52.086;5.240;2022-09-04T12:13:17;4.1;;;3.1;;
50651;SDS011;61429;52.086;5.240;2022-09-04T12:15:36;4.1;;;3.1;;
50651;SDS011;61429;52.086;5.240;2022-09-04T12:19:13;2.9;;;2.6;;
50651;SDS011;61429;52.086;5.240;2022-09-04T12:22:08;4.0;;;3.2;;
50651;SDS011;61429;52.086;5.240;2022-09-04T12:25:43;4.0;;;3.0;;
50651;SDS011;61429;52.086;5.240;2022-09-04T12:29:22;4.0;;;3.1;;
50651;SDS011;61429;52.086;5.240;2022-09-04T12:30:18;3.6;;;3.0;;
50651;SDS011;61429;52.086;5.240;2022-09-04T12:32:59;3.4;;;3.1;;
50651;SDS011;61429;52.086;5.240;2022-09-04T12:35:49;4.2;;;2.8;;
50651;SDS011;61429;52.086;5.240;2022-09-04T12:39:11;5.6;;;3.6;;
50651;SDS011;61429;52.086;5.240;2022-09-04T12:42:43;6.3;;;3.5;;
50651;SDS011;61429;52.086;5.240;2022-09-04T12:44:33;4.7;;;3.6;;
50651;SDS011;61429;52.086;5.240;2022-09-04T12:46:24;4.2;;;3.6;;
50651;SDS011;61429;52.086;5.240;2022-09-04T12:48:18;5.3;;;3.7;;
50651;SDS011;61429;52.086;5.240;2022-09-04T12:52:08;4.7;;;3.2;;
50651;SDS011;61429;52.086;5.240;2022-09-04T12:53:56;4.1;;;3.2;;
50651;SDS011;61429;52.086;5.240;2022-09-04T12:55:47;3.9;;;3.4;;
50651;SDS011;61429;52.086;5.240;2022-09-04T12:57:35;8.0;;;4.1;;
50651;SDS011;61429;52.086;5.240;2022-09-04T12:59:31;5.6;;;3.0;;
50651;SDS011;61429;52.086;5.240;2022-09-04T13:01:20;4.7;;;3.1;;
50651;SDS011;61429;52.086;5.240;2022-09-04T13:03:11;5.2;;;3.3;;
50651;SDS011;61429;52.086;5.240;2022-09-04T13:04:56;4.5;;;3.4;;
50651;SDS011;61429;52.086;5.240;2022-09-04T13:08:43;4.3;;;3.9;;
50651;SDS011;61429;52.086;5.240;2022-09-04T13:10:34;5.2;;;3.4;;
50651;SDS011;61429;52.086;5.240;2022-09-04T13:12:23;3.5;;;3.2;;
50651;SDS011;61429;52.086;5.240;2022-09-04T13:14:15;4.1;;;2.9;;
50651;SDS011;61429;52.086;5.240;2022-09-04T13:16:16;4.61;;;3.6;;
50651;SDS011;61429;52.086;5.240;2022-09-04T13:18:06;3.1;;;2.8;;
50651;SDS011;61429;52.086;5.240;2022-09-04T13:20:02;3.4;;;3.1;;
50651;SDS011;61429;52.086;5.240;2022-09-04T13:21:55;3.6;;;3.1;;
50651;SDS011;61429;52.086;5.240;2022-09-04T13:23:48;4.2;;;2.7;;
50651;SDS011;61429;52.086;5.240;2022-09-04T13:27:34;4.3;;;3.0;;
50651;SDS011;61429;52.086;5.240;2022-09-04T13:29:25;3.0;;;2.7;;
50651;SDS011;61429;52.086;5.240;2022-09-04T13:31:22;3.4;;;3.1;;
50651;SDS011;61429;52.086;5.240;2022-09-04T13:33:19;3.4;;;2.7;;
50651;SDS011;61429;52.086;5.240;2022-09-04T13:35:11;3.0;;;2.7;;
50651;SDS011;61429;52.086;5.240;2022-09-04T13:37:00;4.1;;;3.0;;
50651;SDS011;61429;52.086;5.240;2022-09-04T13:40:13;3.9;;;3.2;;
50651;SDS011;61429;52.086;5.240;2022-09-04T13:42:04;4.3;;;3.1;;
50651;SDS011;61429;52.086;5.240;2022-09-04T13:45:38;3.9;;;3.2;;
50651;SDS011;61429;52.086;5.240;2022-09-04T13:47:20;3.9;;;3.5;;
50651;SDS011;61429;52.086;5.240;2022-09-04T13:49:00;3.6;;;3.1;;
50651;SDS011;61429;52.086;5.240;2022-09-04T13:52:28;4.3;;;2.9;;
50651;SDS011;61429;52.086;5.240;2022-09-04T13:54:15;5.2;;;3.6;;
50651;SDS011;61429;52.086;5.240;2022-09-04T13:55:58;4.0;;;2.9;;
50651;SDS011;61429;52.086;5.240;2022-09-04T13:57:42;4.0;;;2.9;;
50651;SDS011;61429;52.086;5.240;2022-09-04T13:59:23;3.6;;;2.7;;
50651;SDS011;61429;52.086;5.240;2022-09-04T14:02:44;2.9;;;2.7;;
50651;SDS011;61429;52.086;5.240;2022-09-04T14:04:26;3.7;;;2.9;;
50651;SDS011;61429;52.086;5.240;2022-09-04T14:06:10;4.2;;;3.2;;
50651;SDS011;61429;52.086;5.240;2022-09-04T14:07:56;3.7;;;3.0;;
50651;SDS011;61429;52.086;5.240;2022-09-04T14:11:21;4.0;;;2.9;;
50651;SDS011;61429;52.086;5.240;2022-09-04T14:13:34;3.4;;;2.8;;
50651;SDS011;61429;52.086;5.240;2022-09-04T14:15:32;4.3;;;2.7;;
50651;SDS011;61429;52.086;5.240;2022-09-04T14:17:39;3.6;;;3.0;;
50651;SDS011;61429;52.086;5.240;2022-09-04T14:19:35;2.9;;;2.6;;
50651;SDS011;61429;52.086;5.240;2022-09-04T14:21:29;3.4;;;2.9;;
50651;SDS011;61429;52.086;5.240;2022-09-04T14:23:20;3.4;;;2.6;;
50651;SDS011;61429;52.086;5.240;2022-09-04T14:25:09;4.3;;;2.6;;
50651;SDS011;61429;52.086;5.240;2022-09-04T14:26:55;4.0;;;2.7;;
50651;SDS011;61429;52.086;5.240;2022-09-04T14:28:45;2.7;;;2.5;;
50651;SDS011;61429;52.086;5.240;2022-09-04T14:32:14;3.6;;;2.7;;
50651;SDS011;61429;52.086;5.240;2022-09-04T14:34:02;2.7;;;2.5;;